Pendleton, OR (97801)

18:47:PDT den 01. september 2014 (GMT -0700)
Sun Ridge Estates | Change Station
CLOSE
Current Station
Personlig værstasjon
Location: Pendleton, OR
Høyde over havet: 1210 ft
Nearby Weather Stations

H.o.h 1210 ft 45.65 °N, 118.79 °W | Updated 1 minute ago

Clear
Klart
79.6 °F
Feels Like 79 °F
N
3.0
Vind Variabel Vind from VNV
Gusts 5.0 mph

I dag
High -- | Low -- °F
--% Chance of Precip.
I går
High -- | Low -- °F
Precip. -- tommer
6:16 AM 7:32 PM
Økende sigd, 46% visible
Lufttrykk 29.91 tommer
Sikt 10.0 eng. mil
Skyet Klart
Varmeindeks 79 °F
Duggpunkt 46 °F
Fuktighet 30%
Regn 0.00 tommer
Snødybde Not available.
UV 1 av 12
Pollen 5.60 av 12
Luftkvalitet Not available.
Flu Activity Not available.
METAR KPDT 020053Z 34006KT 10SM CLR 26/05 A2994 RMK AO2 SLP126 T02610050

More Conditions Fewer Conditions

Lufttrykk 29.91 tommer
Sikt 10.0 eng. mil
Skyet Klart
Varmeindeks 79 °F
Duggpunkt 46 °F
Fuktighet 30%
Regn 0.00 tommer
Snødybde Not available.
UV 1 av 12
Pollen 5.60 av 12
Luftkvalitet Not available.
Flu Activity Not available.
METAR KPDT 020053Z 34006KT 10SM CLR 26/05 A2994 RMK AO2 SLP126 T02610050

More Conditions Fewer Conditions

10-Day Weather Forecast

Almanac

Astronomi

Sep. 01, 2014 Oppgang Nedgang
Virkelig tid 06:16 PDT 19:32 PDT
Tussmørke 05:45 PDT 20:03 PDT
Nautisk skumring 05:08 PDT 20:40 PDT
Astronomisk skumring 04:29 PDT 21:19 PDT
Månen 13:27 PDT (9/1) 23:17 PDT (9/1)
Lengde av synlig lys 14h 17m
Dagens lengde
13h 16m
Tomorrow will be 3m 5s shorter.
Økende sigd, 46% of the Moon is Illuminated
I dag
Økende sigd
Sep 2
Første kvarter
Sep 8
Fullmåne
Sep 15
Siste kvarter
Sep 24
Ny

Dagens maks og min

State Highs State Lows

Community

WunderPhotos

Upload Photos

1,749,476 photos uploaded!

Nearby

Snødybde

Stasjon Depth Høyde over havet
Lucky Strike 0 in 5050 ft
Arbuckle Mountain 0 in 5400 ft
Bourne 3 in 5800 ft
Tipton 0 in 5150 ft
Mt. Howard 0 in 7910 ft

Earthquake Activity

By Distance Mag. Time & Date
No recent earthquake activity has been reported nearby.
Minimum magnitude displayed is 2.5.

Coastal Water Temperatures

Sted Temperatur
Ingen stasjoner raporterer

Nearby Weather Stations